Tiempo atmosférico en la estación meteorológica de Priego de Cordoba, Córdoba (520 m.)



Fecha
DESCASC
Temp. máxima en grados centígrados (hora)
DESCASC
Temp. mínima en grados centígrados (hora)
DESCASC
Temp. media en grados centígrados
DESCASC
Racha de viento máxima en m/sg (hora)
DESCASC
Velocidad máxima media en intervalos de 10 minutos(hora)
DESCASC
Precipitaciones diarias en mm
DESCASC
Precipitaciones de 00:00 a 06:00 en mm
DESCASC
Precipitaciones de 06:00 a 12:00 en mm
DESCASC
Precipitaciones de 12:00 a 18:00 en mm
DESCASC
Precipitaciones de 18:00 a 24:00 en mm
DESCASC
15-07-2018 28 (17:10) 13.8 (07:20) 20.9 11.67 (16:40) 8.06 (23:10) 0 0 0 0 0
14-07-2018 34.3 (16:00) 13.9 (07:30) 24.1 9.44 (17:20) 6.39 (17:50) 0 0 0 0 0
13-07-2018 32.7 (18:00) 15 (07:30) 23.9 9.17 (17:20) 5.28 (16:30) 0 0 0 0 0
12-07-2018 32.6 (18:00) 16.2 (00:00) 24.4 8.89 (21:50) 6.11 (21:30) 0 0 0 0 0
11-07-2018 32.7 (14:50) 15.7 (00:00) 24.2 13.06 (13:10) 7.22 (19:20) 0 0 0 0 0
10-07-2018 34.7 (15:30) 20.5 (00:00) 27.6 10.56 (16:10) 7.5 (16:10) 0 0 0 0 0
09-07-2018 37.3 (17:20) 20.1 (00:00) 28.7 8.33 (16:50) 6.11 (00:20) 0 0 0 0 0
08-07-2018 36.3 (18:50) 18.4 (06:40) 27.3 8.06 (19:00) 5.56 (00:50) 0 0 0 0 0
07-07-2018 36.4 (18:30) 17.1 (00:00) 26.8 7.22 (17:50) 4.72 (22:40) 0 0 0 0 0
06-07-2018 35.3 (17:50) 14.8 (00:00) 25 9.17 (16:00) 5.83 (16:00) 0 0 0 0 0
05-07-2018 31.5 (19:20) 14.9 (07:20) 23.2 7.78 (12:20) 5 (01:00) 0 0 0 0 0
04-07-2018 28.9 (19:20) 16 (07:20) 22.4 10.83 (14:00) 6.67 (16:00) 0 0 0 0 0
03-07-2018 34.3 (16:40) 13 (07:20) 23.6 8.61 (16:50) 6.39 (23:30) 0 0 0 0 0
02-07-2018 29.5 (17:00) 13.8 (07:20) 21.7 7.78 (00:10) 5.28 (19:10) 0 0 0 0 0
01-07-2018 27 (19:10) 17.2 (00:00) 22.1 10.28 (13:50) 6.39 (16:30) 0 0 0 0 0
30-06-2018 29.2 (15:20) 16.1 (07:10) 22.7 11.11 (18:30) 7.22 (19:00) 0 0 0 0 0
29-06-2018 32.6 (18:10) 15.5 (00:00) 24 9.44 (19:40) 6.39 (19:40) 0 0 0 0 0
28-06-2018 32.6 (17:10) 17.1 (00:00) 24.8 11.67 (18:10) 8.33 (18:10) 0 0 0 0 0
27-06-2018 32.8 (16:50) 18.3 (00:00) 25.5 10.28 (00:10) 6.39 (00:10) 0 0 0 0 0
26-06-2018 33.8 (17:20) 18.2 (00:00) 26 9.72 (00:10) 6.39 (23:00) 0 0 0 0 0
25-06-2018 32.2 (19:10) 17.8 (00:00) 25 8.61 (00:20) 6.39 (00:20) 0 0 0 0 0
24-06-2018 37.7 (18:40) 17.7 (00:00) 27.7 10.83 (22:40) 8.06 (22:40) 0 0 0 0 0
23-06-2018 36.3 (16:40) 16.2 (00:00) 26.3 8.89 (20:30) 6.39 (20:30) 0 0 0 0 0
22-06-2018 35.3 (16:40) 17.5 (07:10) 26.4 10 (21:00) 6.94 (21:00) 0 0 0 0 0
21-06-2018 34.7 (18:40) 19.2 (00:00) 27 13.06 (20:10) 8.89 (20:10) 0 0 0 0 0
20-06-2018 33.9 (18:30) 17.9 (00:00) 25.9 11.67 (20:20) 7.5 (20:20) 0 0 0 0 0
19-06-2018 34.2 (17:40) 17.3 (00:00) 25.8 8.89 (20:10) 5.83 (20:30) 0 0 0 0 0
18-06-2018 35.8 (18:30) 18.2 (00:00) 27 11.11 (19:20) 7.5 (19:20) 0 0 0 0 0
17-06-2018 34.5 (16:50) 17.1 (00:00) 25.8 10.83 (20:20) 6.11 (20:30) 0 0 0 0 0

Gráficas

Temp. máximas Temp. mínimas Temp. medias Precipitaciones Rachas de viento máximas Velocidades máximas media en intervalos de 10 minutos

Datos horarios

Fecha y hora oficial Temperatura (ºC) Velocidad del viento (km/h) Dirección del viento Racha (km/h) Dirección de racha Precipitación (mm) Presión (hPa) Tendencia (hPa) Humedad (%)
2018-07-16 23:00:00 23.2 8 Sudoeste 11 Sudoeste 0 -- -- 40
2018-07-16 22:00:00 25.8 4 Nordeste 8 Norte 0 -- -- 35
2018-07-16 21:00:00 28.5 5 Norte 14 Norte 0 -- -- 30
2018-07-16 20:00:00 29.1 9 Nordeste 17 Norte 0 -- -- 29
2018-07-16 19:00:00 29.4 13 Norte 23 Norte 0 -- -- 27
2018-07-16 18:00:00 29.5 12 Norte 25 Nordeste 0 -- -- 27
2018-07-16 17:00:00 29.1 10 Nordeste 28 Nordeste 0 -- -- 29
2018-07-16 16:00:00 28.5 13 Norte 25 Norte 0 -- -- 31
2018-07-16 15:00:00 27.6 9 Nordeste 21 Nordeste 0 -- -- 33
2018-07-16 14:00:00 26.2 8 Norte 22 Norte 0 -- -- 35
2018-07-16 13:00:00 25.4 12 Nordeste 23 Norte 0 -- -- 41
2018-07-16 12:00:00 24.3 11 Nordeste 21 Nordeste 0 -- -- 46
2018-07-16 11:00:00 23 8 Nordeste 17 Nordeste 0 -- -- 55
2018-07-16 10:00:00 20.9 6 Norte 10 Norte 0 -- -- 63
2018-07-16 09:00:00 18.8 0 Calma 7 Sudoeste 0 -- -- 70
2018-07-16 08:00:00 14.8 4 Sudoeste 6 Sudoeste 0 -- -- 82
2018-07-16 07:00:00 14.3 3 Norte 7 Sudoeste 0 -- -- 82
2018-07-16 06:00:00 15.5 6 Oeste 8 Oeste 0 -- -- 82
2018-07-16 05:00:00 16 5 Sudoeste 17 Sudoeste 0 -- -- 78
2018-07-16 04:00:00 16.5 13 Sudoeste 17 Sudoeste 0 -- -- 75
2018-07-16 03:00:00 17.2 9 Sudoeste 22 Sudoeste 0 -- -- 69
2018-07-16 02:00:00 17.7 7 Sur 29 Sudoeste 0 -- -- 67
2018-07-16 01:00:00 18.2 17 Sudoeste 35 Sudoeste 0 -- -- 66
2018-07-16 00:00:00 18.8 26 Sudoeste 39 Sudoeste 0 -- -- 66
2018-07-15 23:00:00 19.9 25 Sudoeste 39 Sudoeste 0 -- -- 62
2018-07-15 22:00:00 21.5 11 Sudoeste 27 Oeste 0 -- -- 50
2018-07-15 21:00:00 24.3 16 Sudoeste 41 Sudoeste 0 -- -- 40
2018-07-15 20:00:00 25.9 23 Sudoeste 34 Sudoeste 0 -- -- 35
2018-07-15 19:00:00 27 21 Sudoeste 36 Sudoeste 0 -- -- 37
2018-07-15 18:00:00 27.6 22 Sudoeste 40 Sudoeste 0 -- -- 37
2018-07-15 17:00:00 27.7 26 Sudoeste 42 Oeste 0 -- -- 37
2018-07-15 16:00:00 26.6 22 Oeste 38 Oeste 0 -- -- 40
2018-07-15 15:00:00 27.3 23 Sudoeste 34 Sur 0 -- -- 35
2018-07-15 14:00:00 27.7 13 Sudoeste 24 Sudoeste 0 -- -- 30
2018-07-15 13:00:00 24.9 10 Nordeste 19 Nordeste 0 -- -- 49
2018-07-15 12:00:00 22.7 6 Norte 11 Oeste 0 -- -- 55
2018-07-15 11:00:00 20.5 4 Norte 11 Norte 0 -- -- 61
2018-07-15 10:00:00 19.1 4 Este 13 Norte 0 -- -- 66
2018-07-15 09:00:00 16.9 6 Nordeste 10 Nordeste 0 -- -- 73
2018-07-15 08:00:00 14.1 0 Calma -- -- 0 -- -- 83
2018-07-15 07:00:00 14 0 Calma 3 Noroeste 0 -- -- 82
2018-07-15 06:00:00 14.7 0 Calma 6 Nordeste 0 -- -- 79
2018-07-15 05:00:00 15.6 5 Este 11 Este 0 -- -- 76
2018-07-15 04:00:00 16.3 6 Oeste 10 Sudoeste 0 -- -- 73
2018-07-15 03:00:00 17.3 7 Sur 14 Sudoeste 0 -- -- 68
2018-07-15 02:00:00 18.6 6 Sudoeste 17 Sudoeste 0 -- -- 64
2018-07-15 01:00:00 19.7 9 Sudoeste 24 Sudoeste 0 -- -- 61
2018-07-15 00:00:00 21 16 Sudoeste 23 Sudoeste 0 -- -- 58
2018-07-14 23:00:00 22.7 14 Sudoeste 26 Sudoeste 0 -- -- 56
2018-07-14 22:00:00 24.8 12 Sudoeste 30 Sudoeste 0 -- -- 50
2018-07-14 21:00:00 28.1 18 Sudoeste 27 Sudoeste 0 -- -- 44
2018-07-14 20:00:00 30.9 15 Sudoeste 30 Sudoeste 0 -- -- 38
2018-07-14 19:00:00 31.9 21 Sudoeste 34 Sudoeste 0 -- -- 36
2018-07-14 18:00:00 32.6 21 Sudoeste 34 Sudoeste 0 -- -- 36
2018-07-14 17:00:00 33.6 21 Sudoeste 32 Sudoeste 0 -- -- 33
2018-07-14 16:00:00 34.3 9 Sudoeste 28 Nordeste 0 -- -- 30
2018-07-14 15:00:00 33 8 Sur 23 Nordeste 0 -- -- 34
2018-07-14 14:00:00 30.4 16 Nordeste 24 Nordeste 0 -- -- 38
2018-07-14 13:00:00 29.6 12 Nordeste 19 Norte 0 -- -- 41
2018-07-14 12:00:00 29.1 4 Norte 12 Noroeste 0 -- -- 39
2018-07-14 11:00:00 25.6 3 Norte 8 Norte 0 -- -- 49
2018-07-14 10:00:00 23.1 0 Calma 5 Sur 0 -- -- 58
2018-07-14 09:00:00 18.1 3 Sur 12 Sudoeste 0 -- -- 71
2018-07-14 08:00:00 14.4 7 Sudoeste 9 Sudoeste 0 -- -- 81
2018-07-14 07:00:00 14.2 4 Sudoeste -- -- 0 -- -- 82
2018-07-14 06:00:00 14.9 5 Sudoeste 9 Sudoeste 0 -- -- 78
2018-07-14 05:00:00 16.2 3 Oeste 5 Sudoeste 0 -- -- 72
2018-07-14 04:00:00 17.4 0 Calma 4 Sur 0 -- -- 69
2018-07-14 03:00:00 18.7 0 Calma 8 Sudoeste 0 -- -- 68
2018-07-14 02:00:00 19.6 7 Sudoeste 13 Sudoeste 0 -- -- 63
2018-07-14 01:00:00 21 10 Sudoeste 15 Sur 0 -- -- 58
2018-07-14 00:00:00 22.1 8 Sudoeste 14 Sur 0 -- -- 54
2018-07-13 23:00:00 23.2 10 Sur 14 Sur 0 -- -- 49
2018-07-13 22:00:00 25.1 7 Sur 19 Sudoeste 0 -- -- 44
2018-07-13 21:00:00 28.5 15 Sudoeste 26 Sudoeste 0 -- -- 36
2018-07-13 20:00:00 30.9 17 Sudoeste 29 Sudoeste 0 -- -- 31
2018-07-13 19:00:00 32.2 15 Sudoeste 28 Sudoeste 0 -- -- 29
2018-07-13 18:00:00 32.7 11 Oeste 33 Sudoeste 0 -- -- 31
2018-07-13 17:00:00 32 17 Sudoeste 31 Sudoeste 0 -- -- 34
2018-07-13 16:00:00 30.4 13 Norte 24 Norte 0 -- -- 39
2018-07-13 15:00:00 29.6 13 Nordeste 28 Nordeste 0 -- -- 42
2018-07-13 14:00:00 28.8 5 Nordeste 18 Nordeste 0 -- -- 43
2018-07-13 13:00:00 26 7 Norte 20 Nordeste 0 -- -- 50
2018-07-13 12:00:00 24.1 9 Nordeste 16 Nordeste 0 -- -- 57
2018-07-13 11:00:00 21.8 10 Nordeste 16 Nordeste 0 -- -- 64
2018-07-13 10:00:00 19.8 10 Nordeste 15 Nordeste 0 -- -- 69
2018-07-13 09:00:00 17.3 8 Norte 11 Norte 0 -- -- 79
2018-07-13 08:00:00 15.6 2 Norte 6 Sudoeste 0 -- -- 82
2018-07-13 07:00:00 15.2 2 Sudoeste 5 Norte 0 -- -- 82
2018-07-13 06:00:00 16.1 4 Norte 9 Norte 0 -- -- 79
2018-07-13 05:00:00 16.8 6 Norte 12 Nordeste 0 -- -- 77
2018-07-13 04:00:00 17.7 9 Nordeste 13 Nordeste 0 -- -- 74
2018-07-13 03:00:00 18.6 8 Nordeste 12 Nordeste 0 -- -- 71
2018-07-13 02:00:00 19.4 4 Este 10 Norte 0 -- -- 70
2018-07-13 01:00:00 20.4 9 Sudoeste 18 Sudoeste 0 -- -- 66
2018-07-13 00:00:00 21.4 12 Sur 27 Sudoeste 0 -- -- 64
2018-07-12 23:00:00 22.6 22 Sudoeste 28 Sudoeste 0 -- -- 62
2018-07-12 22:00:00 24.3 22 Sudoeste 32 Sudoeste 0 -- -- 57
2018-07-12 21:00:00 27.8 20 Sudoeste 29 Sudoeste 0 -- -- 46
2018-07-12 20:00:00 30.6 15 Sudoeste 27 Sudoeste 0 -- -- 39
2018-07-12 19:00:00 31.6 17 Sudoeste 28 Oeste 0 -- -- 38
2018-07-12 18:00:00 32.6 18 Sudoeste 27 Norte 0 -- -- 35
2018-07-12 17:00:00 31.2 15 Norte 25 Norte 0 -- -- 41
2018-07-12 16:00:00 30.1 13 Norte 24 Norte 0 -- -- 44
2018-07-12 15:00:00 29.3 15 Norte 28 Nordeste 0 -- -- 46
2018-07-12 14:00:00 28.2 17 Nordeste 26 Nordeste 0 -- -- 48
2018-07-12 13:00:00 27.4 16 Nordeste 27 Nordeste 0 -- -- 50
2018-07-12 12:00:00 25.7 18 Nordeste 25 Nordeste 0 -- -- 52
2018-07-12 11:00:00 24.4 7 Nordeste 13 Norte 0 -- -- 50
2018-07-12 10:00:00 23.4 0 Calma 6 Sur 0 -- -- 51
2018-07-12 09:00:00 19.8 4 Nordeste 8 Nordeste 0 -- -- 59
2018-07-12 08:00:00 16.8 0 Calma 5 Norte 0 -- -- 61
2018-07-12 07:00:00 16.2 3 Norte 4 Norte 0 -- -- 62
2018-07-12 06:00:00 17 0 Calma 6 Sudoeste 0 -- -- 59
2018-07-12 05:00:00 17.9 5 Sudoeste 8 Sudoeste 0 -- -- 56
2018-07-12 04:00:00 18.3 4 Sur 9 Sudoeste 0 -- -- 56
2018-07-12 03:00:00 19 8 Sudoeste 13 Sur 0 -- -- 53
2018-07-12 02:00:00 19.6 11 Sudoeste 13 Sudoeste 0 -- -- 55
2018-07-12 01:00:00 21.2 8 Oeste 22 Sudoeste 0 -- -- 52
2018-07-12 00:00:00 22.6 17 Sudoeste 26 Sudoeste 0 -- -- 44
2018-07-11 23:00:00 24.1 20 Sudoeste 26 Sudoeste 0 -- -- 42
2018-07-11 22:00:00 24.9 14 Sur 24 Sudoeste 0 -- -- 39
2018-07-11 21:00:00 28.7 16 Sudoeste 33 Oeste 0 -- -- 32
2018-07-11 20:00:00 30.5 21 Sudoeste 37 Oeste 0 -- -- 27
2018-07-11 19:00:00 31.3 24 Oeste 39 Oeste 0 -- -- 26
2018-07-11 18:00:00 32.3 21 Sudoeste 41 Sudoeste 0 -- -- 26
2018-07-11 17:00:00 31.7 22 Oeste 41 Sudoeste 0 -- -- 30
2018-07-11 16:00:00 32.1 24 Sudoeste 39 Sudoeste 0 -- -- 31
2018-07-11 15:00:00 32.3 19 Oeste 31 Oeste 0 -- -- 32
2018-07-11 14:00:00 32 18 Sudoeste 47 Noroeste 0 -- -- 31
2018-07-11 13:00:00 30.7 6 Este 18 Norte 0 -- -- 30
2018-07-11 12:00:00 28 5 Nordeste 13 Norte 0 -- -- 38
2018-07-11 11:00:00 24.8 9 Norte 13 Nordeste 0 -- -- 44
2018-07-11 10:00:00 23 8 Nordeste 13 Nordeste 0 -- -- 46
2018-07-11 09:00:00 19.1 3 Sudoeste 9 Sudoeste 0 -- -- 51
2018-07-11 08:00:00 15.8 8 Sudoeste 12 Sudoeste 0 -- -- 65
2018-07-11 07:00:00 16.6 3 Oeste 9 Sudoeste 0 -- -- 63
2018-07-11 06:00:00 17.4 8 Sudoeste 14 Sudoeste 0 -- -- 63
2018-07-11 05:00:00 18.8 9 Sudoeste 17 Sudoeste 0 -- -- 62
2018-07-11 04:00:00 19.7 10 Sur 12 Sur 0 -- -- 60
2018-07-11 03:00:00 20.5 6 Sur 10 Sudoeste 0 -- -- 57
2018-07-11 02:00:00 21.9 8 Sudoeste 21 Sudoeste 0 -- -- 55
2018-07-11 01:00:00 23.4 18 Sudoeste 27 Sudoeste 0 -- -- 54
2018-07-11 00:00:00 24.5 18 Sudoeste 28 Sudoeste 0 -- -- 51
2018-07-10 23:00:00 26.1 22 Sudoeste 28 Sudoeste 0 -- -- 45
2018-07-10 22:00:00 27.3 15 Sudoeste 26 Sudoeste 0 -- -- 39
2018-07-10 21:00:00 30.8 19 Sudoeste 31 Sudoeste 0 -- -- 33
2018-07-10 20:00:00 33.4 17 Sudoeste 30 Sudoeste 0 -- -- 27
2018-07-10 19:00:00 34.2 21 Sudoeste 37 Sudoeste 0 -- -- 24
2018-07-10 18:00:00 34.6 19 Sudoeste 36 Sudoeste 0 -- -- 27
2018-07-10 17:00:00 33.9 27 Sudoeste 38 Sudoeste 0 -- -- 29
2018-07-10 16:00:00 34.3 25 Sudoeste 36 Sudoeste 0 -- -- 27
2018-07-10 15:00:00 34.3 18 Sudoeste 30 Sudoeste 0 -- -- 28
2018-07-10 14:00:00 33.5 8 Noroeste 24 Norte 0 -- -- 32
2018-07-10 13:00:00 32.5 11 Norte 22 Norte 0 -- -- 34
2018-07-10 12:00:00 31.6 6 Norte 12 Sudoeste 0 -- -- 33
2018-07-10 11:00:00 30.4 6 Sudoeste 14 Sudoeste 0 -- -- 36
2018-07-10 10:00:00 27 7 Sudoeste 13 Sudoeste 0 -- -- 44
2018-07-10 09:00:00 22.7 8 Sudoeste 12 Sudoeste 0 -- -- 53
2018-07-10 08:00:00 20.5 7 Sudoeste 9 Sudoeste 0 -- -- 56
2018-07-10 07:00:00 21.5 0 Calma 12 Sudoeste 0 -- -- 53
2018-07-10 06:00:00 22.4 11 Sudoeste 19 Sudoeste 0 -- -- 51
2018-07-10 05:00:00 22.4 13 Sur 18 Sudoeste 0 -- -- 52
2018-07-10 04:00:00 23 10 Sur 22 Sudoeste 0 -- -- 53
2018-07-10 03:00:00 24.3 15 Sudoeste 21 Sudoeste 0 -- -- 51
2018-07-10 02:00:00 25.6 12 Sudoeste 22 Sudoeste 0 -- -- 46
2018-07-10 01:00:00 26.6 14 Sudoeste 29 Sudoeste 0 -- -- 44
2018-07-10 00:00:00 27.6 18 Sudoeste 26 Sur 0 -- -- 38
2018-07-09 23:00:00 28.5 14 Sudoeste 18 Sur 0 -- -- 33
2018-07-09 22:00:00 29.9 7 Sur 16 Sudoeste 0 -- -- 30
2018-07-09 21:00:00 33.2 12 Oeste 26 Oeste 0 -- -- 26
2018-07-09 20:00:00 34.6 15 Oeste 28 Oeste 0 -- -- 27
2018-07-09 19:00:00 36.9 15 Sudoeste 30 Oeste 0 -- -- 24
2018-07-09 18:00:00 36.7 12 Oeste 26 Sudoeste 0 -- -- 24
2018-07-09 17:00:00 36.8 15 Sudoeste 30 Sudoeste 0 -- -- 23
2018-07-09 16:00:00 35.8 10 Oeste 24 Sudoeste 0 -- -- 26
2018-07-09 15:00:00 33.9 14 Norte 24 Norte 0 -- -- 35
2018-07-09 14:00:00 33.3 9 Norte 21 Nordeste 0 -- -- 33
2018-07-09 13:00:00 32.1 8 Norte 18 Norte 0 -- -- 34
2018-07-09 12:00:00 30.9 6 Oeste 22 Sudeste 0 -- -- 36
2018-07-09 11:00:00 29.4 5 Norte 10 Sudoeste 0 -- -- 40
2018-07-09 10:00:00 26.8 7 Sudoeste 10 Oeste 0 -- -- 47
2018-07-09 09:00:00 24.2 3 Sudoeste 8 Sudoeste 0 -- -- 53
2018-07-09 08:00:00 20.6 6 Sudoeste 9 Sudoeste 0 -- -- 61
2018-07-09 07:00:00 20.9 6 Sudoeste 9 Sur 0 -- -- 60
2018-07-09 06:00:00 21.2 8 Sudoeste 13 Sur 0 -- -- 59
2018-07-09 05:00:00 22.5 10 Sudoeste 19 Sur 0 -- -- 55
2018-07-09 04:00:00 23 12 Sur 16 Sur 0 -- -- 54
2018-07-09 03:00:00 24.3 9 Sudoeste 25 Sudoeste 0 -- -- 51
2018-07-09 02:00:00 25.2 14 Sudoeste 27 Sudoeste 0 -- -- 48
2018-07-09 01:00:00 26.4 20 Sudoeste 29 Sudoeste 0 -- -- 45
2018-07-09 00:00:00 26.8 17 Sur 21 Sur 0 -- -- 38
2018-07-08 23:00:00 27.4 9 Sur 13 Sudoeste 0 -- -- 35
2018-07-08 22:00:00 29.3 5 Sur 15 Oeste 0 -- -- 33
2018-07-08 21:00:00 32.7 7 Oeste 22 Oeste 0 -- -- 29
2018-07-08 20:00:00 34.6 14 Sudoeste 28 Sudoeste 0 -- -- 27
2018-07-08 19:00:00 36.3 14 Sudoeste 29 Sudoeste 0 -- -- 25
2018-07-08 18:00:00 35.4 10 Sudoeste 26 Oeste 0 -- -- 26
2018-07-08 17:00:00 34.5 7 Nordeste 21 Nordeste 0 -- -- 29
2018-07-08 16:00:00 33.8 10 Nordeste 22 Nordeste 0 -- -- 31
2018-07-08 15:00:00 32.9 12 Nordeste 25 Norte 0 -- -- 33
2018-07-08 14:00:00 32.2 10 Norte 23 Norte 0 -- -- 34
2018-07-08 13:00:00 31.2 10 Norte 19 Norte 0 -- -- 36
2018-07-08 12:00:00 30.3 8 Oeste 15 Sudoeste 0 -- -- 36
2018-07-08 11:00:00 29.2 6 Sudoeste 15 Oeste 0 -- -- 38
2018-07-08 10:00:00 25.8 5 Oeste 9 Sudoeste 0 -- -- 43
2018-07-08 09:00:00 22.4 5 Sudoeste 6 Sudoeste 0 -- -- 52
2018-07-08 08:00:00 19.4 0 Calma 8 Sudoeste 0 -- -- 58
2018-07-08 07:00:00 18.5 8 Sudoeste 13 Sudoeste 0 -- -- 60
2018-07-08 06:00:00 19.2 12 Sudoeste 14 Sudoeste 0 -- -- 58
2018-07-08 05:00:00 20.1 10 Sudoeste 15 Sudoeste 0 -- -- 55
2018-07-08 04:00:00 21.5 12 Sudoeste 14 Sudoeste 0 -- -- 50
2018-07-08 03:00:00 22.9 7 Sur 16 Sur 0 -- -- 47
2018-07-08 02:00:00 23.7 14 Sur 21 Sur 0 -- -- 44
2018-07-08 01:00:00 24.3 16 Sudoeste 26 Sudoeste 0 -- -- 42
2018-07-08 00:00:00 25.4 10 Sudoeste 21 Sur 0 -- -- 38
2018-07-07 23:00:00 27.1 15 Sur 23 Sudoeste 0 -- -- 33
2018-07-07 22:00:00 28.8 9 Sudoeste 23 Sudoeste 0 -- -- 30
2018-07-07 21:00:00 32.1 13 Sudoeste 19 Oeste 0 -- -- 26
2018-07-07 20:00:00 34.8 15 Sudoeste 23 Sudoeste 0 -- -- 25
2018-07-07 19:00:00 36 13 Sudoeste 24 Sudoeste 0 -- -- 24
2018-07-07 18:00:00 36.1 15 Sudoeste 26 Sur 0 -- -- 25
2018-07-07 17:00:00 34.2 12 Norte 24 Nordeste 0 -- -- 29
2018-07-07 16:00:00 34.4 7 Norte 20 Oeste 0 -- -- 28
2018-07-07 15:00:00 33.3 12 Nordeste 21 Nordeste 0 -- -- 29
2018-07-07 14:00:00 32.5 5 Norte 25 Sudoeste 0 -- -- 27
2018-07-07 13:00:00 31.3 6 Norte 14 Nordeste 0 -- -- 31
2018-07-07 12:00:00 29.4 8 Norte 15 Norte 0 -- -- 35
2018-07-07 11:00:00 26.8 3 Norte 9 Norte 0 -- -- 40
2018-07-07 10:00:00 23.8 4 Sudoeste 7 Sudoeste 0 -- -- 47
2018-07-07 09:00:00 19.5 4 Sudoeste 10 Sudoeste 0 -- -- 57
2018-07-07 08:00:00 17.6 5 Sudoeste 8 Sudoeste 0 -- -- 60
2018-07-07 07:00:00 17.4 4 Oeste 13 Sudoeste 0 -- -- 59
2018-07-07 06:00:00 17.9 10 Sudoeste 14 Sudoeste 0 -- -- 57
2018-07-07 05:00:00 19.2 10 Sudoeste 14 Sudoeste 0 -- -- 53
2018-07-07 04:00:00 20.9 11 Sudoeste 13 Sudoeste 0 -- -- 47
2018-07-07 03:00:00 21.8 8 Sudoeste 13 Sudoeste 0 -- -- 45
2018-07-07 02:00:00 22.9 10 Sur 18 Sur 0 -- -- 43
2018-07-07 01:00:00 24 15 Sur 20 Sur 0 -- -- 39
2018-07-07 00:00:00 25.2 13 Sur 17 Sur 0 -- -- 37
2018-07-06 23:00:00 26.5 13 Sudoeste 22 Sudoeste 0 -- -- 35
2018-07-06 22:00:00 27.9 9 Sur 13 Sudoeste 0 -- -- 30
2018-07-06 21:00:00 32.3 12 Sudoeste 28 Sudoeste 0 -- -- 25
2018-07-06 20:00:00 33.6 19 Sudoeste 28 Sudoeste 0 -- -- 21
2018-07-06 19:00:00 35 17 Sudoeste 29 Sudoeste 0 -- -- 22
2018-07-06 18:00:00 35.2 20 Sudoeste 30 Sudoeste 0 -- -- 23
2018-07-06 17:00:00 34.7 17 Sudoeste 30 Sudoeste 0 -- -- 26
2018-07-06 16:00:00 33.6 21 Oeste 33 Oeste 0 -- -- 26
2018-07-06 15:00:00 33.8 16 Sudoeste 28 Oeste 0 -- -- 27
2018-07-06 14:00:00 32.6 12 Oeste 26 Sudoeste 0 -- -- 26
2018-07-06 13:00:00 31 9 Sudoeste 19 Sudoeste 0 -- -- 30
2018-07-06 12:00:00 28.4 4 Noroeste 9 Norte 0 -- -- 39
2018-07-06 11:00:00 25.6 5 Norte 10 Norte 0 -- -- 44
2018-07-06 10:00:00 23.5 8 Nordeste 13 Nordeste 0 -- -- 50
2018-07-06 09:00:00 21 3 Nordeste 5 Nordeste 0 -- -- 55
2018-07-06 08:00:00 16 4 Sudoeste 11 Sudoeste 0 -- -- 69
2018-07-06 07:00:00 15.2 10 Sudoeste 12 Sudoeste 0 -- -- 72
2018-07-06 06:00:00 15.6 10 Sudoeste 11 Sudoeste 0 -- -- 70
2018-07-06 05:00:00 16.4 8 Sudoeste 13 Sudoeste 0 -- -- 66
2018-07-06 04:00:00 17.5 9 Sudoeste 10 Sudoeste 0 -- -- 61
2018-07-06 03:00:00 19.5 2 Sudeste 7 Sudoeste 0 -- -- 58
2018-07-06 02:00:00 20.7 4 Sur 9 Sudoeste 0 -- -- 55
2018-07-06 01:00:00 21.6 3 Sudoeste 18 Sudoeste 0 -- -- 51
2018-07-06 00:00:00 22 7 Sur 10 Sudoeste 0 -- -- 42
2018-07-05 23:00:00 23.4 6 Sudoeste 12 Sudoeste 0 -- -- 39
2018-07-05 22:00:00 25.4 8 Sur 10 Sur 0 -- -- 36
2018-07-05 21:00:00 29.2 6 Oeste 17 Oeste 0 -- -- 31
2018-07-05 20:00:00 30.7 6 Oeste 21 Sudoeste 0 -- -- 28
2018-07-05 19:00:00 30.2 8 Norte 23 Norte 0 -- -- 30
2018-07-05 18:00:00 30.1 13 Norte 24 Noroeste 0 -- -- 31
2018-07-05 17:00:00 29.4 10 Norte 23 Norte 0 -- -- 33
2018-07-05 16:00:00 29.3 10 Noroeste 23 Norte 0 -- -- 34
2018-07-05 15:00:00 28.9 10 Nordeste 22 Nordeste 0 -- -- 34
2018-07-05 14:00:00 26.8 11 Nordeste 24 Nordeste 0 -- -- 38
2018-07-05 13:00:00 26.2 9 Norte 28 Norte 0 -- -- 42
2018-07-05 12:00:00 25 13 Nordeste 26 Nordeste 0 -- -- 43
2018-07-05 11:00:00 24 12 Nordeste 22 Nordeste 0 -- -- 46
2018-07-05 10:00:00 22.6 4 Norte 8 Este 0 -- -- 52
2018-07-05 09:00:00 19.7 0 Calma 5 Sudoeste 0 -- -- 65
2018-07-05 08:00:00 15.7 3 Sudoeste 8 Sudoeste 0 -- -- 77
2018-07-05 07:00:00 15.3 4 Sudoeste 6 Sudoeste 0 -- -- 78
2018-07-05 06:00:00 16 4 Sudoeste 9 Sudoeste 0 -- -- 77
2018-07-05 05:00:00 17 4 Sudoeste 6 Sudoeste 0 -- -- 74
2018-07-05 04:00:00 17.9 0 Calma 12 Sur 0 -- -- 70
2018-07-05 03:00:00 18.6 8 Sudoeste 18 Sudoeste 0 -- -- 69
2018-07-05 02:00:00 19.2 11 Sudoeste 24 Sudoeste 0 -- -- 67
2018-07-05 01:00:00 20.4 18 Sudoeste 24 Sudoeste 0 -- -- 62
2018-07-05 00:00:00 21.4 10 Sudoeste 27 Sudoeste 0 -- -- 57
2018-07-04 23:00:00 22.5 16 Sudoeste 26 Sudoeste 0 -- -- 52
2018-07-04 22:00:00 24.2 11 Oeste 22 Sudoeste 0 -- -- 38
2018-07-04 21:00:00 26.5 11 Oeste 27 Oeste 0 -- -- 34
2018-07-04 20:00:00 28.3 17 Sudoeste 29 Sudoeste 0 -- -- 30
2018-07-04 19:00:00 28.3 21 Sudoeste 32 Oeste 0 -- -- 31
2018-07-04 18:00:00 28.7 20 Sudoeste 32 Sudoeste 0 -- -- 33
2018-07-04 17:00:00 28.2 21 Sudoeste 35 Sudoeste 0 -- -- 34
2018-07-04 16:00:00 27.6 24 Sudoeste 34 Sudoeste 0 -- -- 34
2018-07-04 15:00:00 26.8 17 Sudoeste 33 Sudoeste 0 -- -- 38
2018-07-04 14:00:00 26.5 20 Oeste 39 Oeste 0 -- -- 38
2018-07-04 13:00:00 26.8 22 Sudoeste 30 Sur 0 -- -- 35
2018-07-04 12:00:00 25.2 16 Sudoeste 27 Sudoeste 0 -- -- 36
2018-07-04 11:00:00 23.3 21 Sudoeste 29 Sudoeste 0 -- -- 40
2018-07-04 10:00:00 22.4 12 Sudoeste 18 Sur 0 -- -- 51
2018-07-04 09:00:00 20 13 Sudoeste 15 Sur 0 -- -- 55
2018-07-04 08:00:00 17.2 0 Calma 11 Sudoeste 0 -- -- 62
2018-07-04 07:00:00 16.2 10 Sudoeste 14 Sudoeste 0 -- -- 66
2018-07-04 06:00:00 17.2 5 Sudoeste 13 Sudoeste 0 -- -- 65
2018-07-04 05:00:00 17.8 12 Sudoeste 27 Sudoeste 0 -- -- 69
2018-07-04 04:00:00 18.8 20 Sudoeste 30 Sudoeste 0 -- -- 64
2018-07-04 03:00:00 20.5 8 Sudoeste 14 Sudoeste 0 -- -- 59
2018-07-04 02:00:00 21.6 0 Calma 23 Sudoeste 0 -- -- 54
2018-07-04 01:00:00 22.8 13 Sudoeste 22 Sudoeste 0 -- -- 51
2018-07-04 00:00:00 24.1 17 Sudoeste 31 Sudoeste 0 -- -- 44
2018-07-03 23:00:00 25.3 17 Sudoeste 26 Sur 0 -- -- 37
2018-07-03 22:00:00 26.9 6 Sur 13 Oeste 0 -- -- 31
2018-07-03 21:00:00 30.6 11 Oeste 23 Oeste 0 -- -- 27
2018-07-03 20:00:00 32.4 15 Oeste 26 Sudoeste 0 -- -- 25
2018-07-03 19:00:00 33.8 13 Oeste 27 Sudoeste 0 -- -- 22
2018-07-03 18:00:00 34 18 Sudoeste 31 Sudoeste 0 -- -- 21
2018-07-03 17:00:00 33.6 13 Sudoeste 31 Oeste 0 -- -- 20
2018-07-03 16:00:00 33.3 15 Sudoeste 30 Oeste 0 -- -- 17
2018-07-03 15:00:00 32.8 14 Sudoeste 26 Sudoeste 0 -- -- 20
2018-07-03 14:00:00 30.5 5 Nordeste 21 Sudoeste 0 -- -- 29
2018-07-03 13:00:00 29.9 6 Sudoeste 14 Sudoeste 0 -- -- 32
2018-07-03 12:00:00 26.4 5 Oeste 13 Noroeste 0 -- -- 44
2018-07-03 11:00:00 24.2 6 Norte 13 Norte 0 -- -- 49
2018-07-03 10:00:00 22 3 Oeste 8 Oeste 0 -- -- 59
2018-07-03 09:00:00 17.7 4 Sudoeste 10 Oeste 0 -- -- 68
2018-07-03 08:00:00 13.9 6 Sudoeste 9 Sudoeste 0 -- -- 81
2018-07-03 07:00:00 13.4 9 Sudoeste 11 Sudoeste 0 -- -- 80
2018-07-03 06:00:00 14 4 Sudoeste 10 Sudoeste 0 -- -- 77
2018-07-03 05:00:00 14.5 5 Sudoeste 11 Sudoeste 0 -- -- 75
2018-07-03 04:00:00 16 5 Sudoeste 7 Sudoeste 0 -- -- 69
2018-07-03 03:00:00 16.9 2 Oeste 6 Sudoeste 0 -- -- 67
2018-07-03 02:00:00 17.7 5 Sudoeste 6 Sudoeste 0 -- -- 64
2018-07-03 01:00:00 19 4 Sudoeste 11 Sudoeste 0 -- -- 60
2018-07-03 00:00:00 19.8 8 Sur 10 Sudoeste 0 -- -- 57
2018-07-02 23:00:00 21.2 8 Sudoeste 13 Sudoeste 0 -- -- 53
2018-07-02 22:00:00 23 9 Sur 18 Sudoeste 0 -- -- 49
2018-07-02 21:00:00 26 15 Sudoeste 25 Sudoeste 0 -- -- 42
2018-07-02 20:00:00 27.6 18 Sudoeste 27 Sudoeste 0 -- -- 38
2018-07-02 19:00:00 28.6 18 Sudoeste 25 Sur 0 -- -- 36
2018-07-02 18:00:00 29.4 15 Sudoeste 26 Sudoeste 0 -- -- 35
2018-07-02 17:00:00 29.5 16 Sudoeste 24 Sudoeste 0 -- -- 35
2018-07-02 16:00:00 26.6 9 Norte 22 Norte 0 -- -- 46
2018-07-02 15:00:00 25.8 14 Norte 27 Nordeste 0 -- -- 49
2018-07-02 14:00:00 24.7 15 Nordeste 24 Nordeste 0 -- -- 51
2018-07-02 13:00:00 23.3 10 Norte 20 Norte 0 -- -- 54
2018-07-02 12:00:00 22.5 10 Nordeste 21 Norte 0 -- -- 56
2018-07-02 11:00:00 21.2 6 Nordeste 14 Norte 0 -- -- 58
2018-07-02 10:00:00 19.8 5 Norte 9 Norte 0 -- -- 62
2018-07-02 09:00:00 17.5 5 Sudoeste 10 Sudoeste 0 -- -- 73
2018-07-02 08:00:00 14.8 0 Calma 7 Sudoeste 0 -- -- 82
2018-07-02 07:00:00 14.1 4 Sudoeste 8 Sudoeste 0 -- -- 84
2018-07-02 06:00:00 14.4 4 Sur 9 Sudoeste 0 -- -- 81
2018-07-02 05:00:00 14.9 4 Sudoeste 12 Sudoeste 0 -- -- 78
2018-07-02 04:00:00 15.4 9 Sudoeste 15 Sur 0 -- -- 74
2018-07-02 03:00:00 16.1 12 Sur 21 Sudoeste 0 -- -- 69
2018-07-02 02:00:00 17.1 14 Sudoeste 24 Sudoeste 0 -- -- 69
2018-07-02 01:00:00 17.9 18 Sudoeste 28 Sur 0 -- -- 69
2018-07-02 00:00:00 18.8 18 Sudoeste 26 Sudoeste 0 -- -- 66
2018-07-01 23:00:00 20 15 Sudoeste 25 Sudoeste 0 -- -- 60
2018-07-01 22:00:00 21.4 16 Sudoeste 28 Sudoeste 0 -- -- 55
2018-07-01 21:00:00 24.7 13 Sudoeste 25 Sudoeste 0 -- -- 46
2018-07-01 20:00:00 25.7 13 Oeste 29 Sudoeste 0 -- -- 42
2018-07-01 19:00:00 26.7 19 Oeste 33 Sudoeste 0 -- -- 40
2018-07-01 18:00:00 26.7 17 Oeste 36 Noroeste 0 -- -- 40
2018-07-01 17:00:00 26 19 Oeste 37 Oeste 0 -- -- 41
2018-07-01 16:00:00 26.3 21 Sudoeste 37 Sudoeste 0 -- -- 42
2018-07-01 15:00:00 25.8 18 Sudoeste 32 Sudoeste 0 -- -- 43
2018-07-01 14:00:00 26 18 Sudoeste 37 Sur 0 -- -- 43
2018-07-01 13:00:00 25.7 10 Sudoeste 25 Sudoeste 0 -- -- 46
2018-07-01 12:00:00 24.6 6 Este 17 Noroeste 0 -- -- 52
2018-07-01 11:00:00 22.4 7 Este 13 Nordeste 0 -- -- 58
2018-07-01 10:00:00 21.3 6 Este 11 Este 0 -- -- 63
2018-07-01 09:00:00 20.6 0 Calma 8 Oeste 0 -- -- 69
2018-07-01 08:00:00 17.4 2 Noroeste 12 Sudoeste 0 -- -- 81
2018-07-01 07:00:00 17.4 10 Sudoeste 21 Sudoeste 0 -- -- 79
2018-07-01 06:00:00 17.8 13 Sudoeste 19 Sudoeste 0 -- -- 78
2018-07-01 05:00:00 18.2 9 Sudoeste 21 Sudoeste 0 -- -- 79
2018-07-01 04:00:00 18.2 11 Sudoeste 21 Sudoeste 0 -- -- 78
2018-07-01 03:00:00 17.6 14 Sudoeste 21 Sudoeste 0 -- -- 80
2018-07-01 02:00:00 18.2 6 Sur 10 Sur 0 -- -- 77
2018-07-01 01:00:00 19.2 0 Calma 6 Sudoeste 0 -- -- 72
2018-07-01 00:00:00 19.8 3 Sur 12 Sur 0 -- -- 72
2018-06-30 23:00:00 20.7 10 Sudoeste 20 Sudoeste 0 -- -- 69
2018-06-30 22:00:00 21.7 17 Sudoeste 26 Sudoeste 0 -- -- 66
2018-06-30 21:00:00 24.1 17 Sudoeste 29 Oeste 0 -- -- 58
2018-06-30 20:00:00 25.5 18 Sudoeste 37 Sudoeste 0 -- -- 49
2018-06-30 19:00:00 27.2 26 Sudoeste 40 Oeste 0 -- -- 44
2018-06-30 18:00:00 28.4 24 Sudoeste 36 Sudoeste 0 -- -- 44
2018-06-30 17:00:00 29 19 Sudoeste 35 Oeste 0 -- -- 44
2018-06-30 16:00:00 28.9 19 Sudoeste 32 Sudoeste 0 -- -- 44
2018-06-30 15:00:00 28.5 15 Sudoeste 28 Oeste 0 -- -- 45
2018-06-30 14:00:00 28 18 Sudoeste 29 Sudoeste 0 -- -- 45
2018-06-30 13:00:00 28.1 9 Sudoeste 23 Sudoeste 0 -- -- 44
2018-06-30 12:00:00 26 13 Sudoeste 22 Sudoeste 0 -- -- 49
2018-06-30 11:00:00 24.4 3 Sudoeste 12 Norte 0 -- -- 51
2018-06-30 10:00:00 21.9 6 Nordeste 11 Nordeste 0 -- -- 54
2018-06-30 09:00:00 19.8 5 Norte 8 Norte 0 -- -- 67
2018-06-30 08:00:00 17 0 Calma 4 Sudoeste 0 -- -- 81
2018-06-30 07:00:00 16.3 0 Calma 5 Oeste 0 -- -- 83
2018-06-30 06:00:00 16.9 0 Calma 8 Oeste 0 -- -- 80
2018-06-30 05:00:00 17.9 0 Calma 7 Noroeste 0 -- -- 77
2018-06-30 04:00:00 18.5 4 Oeste 10 Sur 0 -- -- 75
2018-06-30 03:00:00 19.4 7 Sur 15 Sudoeste 0 -- -- 72
2018-06-30 02:00:00 20.2 7 Oeste 17 Sudoeste 0 -- -- 70
2018-06-30 01:00:00 21.2 14 Sudoeste 24 Sudoeste 0 -- -- 67
2018-06-30 00:00:00 22.7 17 Sudoeste 27 Sudoeste 0 -- -- 62
2018-06-29 23:00:00 24.6 17 Sudoeste 22 Sudoeste 0 -- -- 51
2018-06-29 22:00:00 26.2 12 Sudoeste 31 Sudoeste 0 -- -- 40
2018-06-29 21:00:00 29.2 22 Sudoeste 32 Sudoeste 0 -- -- 33
2018-06-29 20:00:00 31.5 16 Sudoeste 34 Sudoeste 0 -- -- 30
2018-06-29 19:00:00 32.1 21 Sudoeste 33 Sudoeste 0 -- -- 33
2018-06-29 18:00:00 32.3 21 Sudoeste 32 Sudoeste 0 -- -- 32
2018-06-29 17:00:00 30.7 13 Norte 30 Norte 0 -- -- 36
2018-06-29 16:00:00 30.3 13 Norte 29 Nordeste 0 -- -- 37
2018-06-29 15:00:00 29.3 14 Nordeste 27 Nordeste 0 -- -- 38
2018-06-29 14:00:00 28.4 19 Norte 33 Norte 0 -- -- 40
2018-06-29 13:00:00 27.5 10 Nordeste 21 Norte 0 -- -- 42
2018-06-29 12:00:00 27.3 4 Norte 13 Sur 0 -- -- 39
2018-06-29 11:00:00 25.9 4 Sur 11 Oeste 0 -- -- 40
2018-06-29 10:00:00 22.2 4 Oeste 8 Oeste 0 -- -- 50
2018-06-29 09:00:00 20 3 Norte 4 Norte 0 -- -- 55
2018-06-29 08:00:00 16.4 2 Oeste 6 Sudoeste 0 -- -- 65
2018-06-29 07:00:00 15.9 3 Sudoeste 5 Sudoeste 0 -- -- 66
2018-06-29 06:00:00 16.4 0 Calma 9 Sudoeste 0 -- -- 64
2018-06-29 05:00:00 16.8 8 Sudoeste 9 Sudoeste 0 -- -- 63
2018-06-29 04:00:00 18 4 Sudoeste 8 Sudoeste 0 -- -- 59
2018-06-29 03:00:00 18.6 6 Sur 10 Sudoeste 0 -- -- 58
2018-06-29 02:00:00 19.7 2 Sur 14 Sudoeste 0 -- -- 53
2018-06-29 01:00:00 20.9 13 Sur 24 Sur 0 -- -- 50
2018-06-29 00:00:00 22 15 Sudoeste 24 Sudoeste 0 -- -- 50
2018-06-28 23:00:00 23.3 15 Sudoeste 21 Sudoeste 0 -- -- 49
2018-06-28 22:00:00 24.3 15 Sudoeste 25 Sudoeste 0 -- -- 48
2018-06-28 21:00:00 26.6 13 Sudoeste 27 Sudoeste 0 -- -- 45
2018-06-28 20:00:00 26 21 Sudoeste 37 Sudoeste 0 -- -- 47
2018-06-28 19:00:00 29 23 Sudoeste 42 Sudoeste 0 -- -- 43
2018-06-28 18:00:00 31.3 24 Sudoeste 38 Sudoeste 0 -- -- 35
2018-06-28 17:00:00 32.1 16 Sudoeste 34 Sudoeste 0 -- -- 35
2018-06-28 16:00:00 31.5 21 Sudoeste 29 Sudoeste 0 -- -- 35
2018-06-28 15:00:00 30.1 11 Nordeste 27 Noroeste 0 -- -- 40
2018-06-28 14:00:00 28.8 14 Norte 26 Norte 0 -- -- 44
2018-06-28 13:00:00 28.6 15 Nordeste 21 Norte 0 -- -- 43
2018-06-28 12:00:00 27.5 7 Nordeste 17 Nordeste 0 -- -- 43
2018-06-28 11:00:00 25.7 4 Noroeste 10 Sudoeste 0 -- -- 44
2018-06-28 10:00:00 24.4 5 Sur 9 Oeste 0 -- -- 49
2018-06-28 09:00:00 20.7 3 Sur 8 Sudoeste 0 -- -- 58
2018-06-28 08:00:00 18.1 3 Sur 6 Norte 0 -- -- 64
2018-06-28 07:00:00 17.3 5 Norte 6 Norte 0 -- -- 66
2018-06-28 06:00:00 17.6 6 Sudoeste 11 Sur 0 -- -- 65
2018-06-28 05:00:00 18.2 8 Sudoeste 13 Sur 0 -- -- 63
2018-06-28 04:00:00 19.1 9 Sudoeste 14 Sur 0 -- -- 59
2018-06-28 03:00:00 19.9 8 Sur 15 Sudoeste 0 -- -- 57
2018-06-28 02:00:00 20.9 11 Sur 13 Sur 0 -- -- 55
2018-06-28 01:00:00 22.2 6 Sudoeste 21 Sudoeste 0 -- -- 52
2018-06-28 00:00:00 23.6 16 Sudoeste 29 Sudoeste 0 -- -- 48
2018-06-27 23:00:00 24.4 14 Sur 21 Sur 0 -- -- 43
2018-06-27 22:00:00 26 7 Sudoeste 18 Oeste 0 -- -- 38
2018-06-27 21:00:00 29.4 13 Sudoeste 27 Sudoeste 0 -- -- 33
2018-06-27 20:00:00 30.6 22 Sudoeste 33 Sudoeste 0 -- -- 33
2018-06-27 19:00:00 31.5 23 Sudoeste 32 Sudoeste 0 -- -- 34
2018-06-27 18:00:00 32.3 21 Sudoeste 31 Sudoeste 0 -- -- 34
2018-06-27 17:00:00 32.7 15 Sudoeste 29 Sudoeste 0 -- -- 37
2018-06-27 16:00:00 30.7 14 Norte 26 Noroeste 0 -- -- 43
2018-06-27 15:00:00 30.1 7 Norte 26 Nordeste 0 -- -- 45
2018-06-27 14:00:00 29 13 Norte 24 Norte 0 -- -- 47
2018-06-27 13:00:00 28.5 10 Norte 20 Norte 0 -- -- 49
2018-06-27 12:00:00 26.6 6 Norte 15 Norte 0 -- -- 55
2018-06-27 11:00:00 25.2 5 Norte 10 Norte 0 -- -- 58
2018-06-27 10:00:00 24.2 5 Sudoeste 10 Sudoeste 0 -- -- 61
2018-06-27 09:00:00 21 4 Oeste 6 Oeste 0 -- -- 71
2018-06-27 08:00:00 19.1 0 Calma 5 Norte 0 -- -- 79
2018-06-27 07:00:00 18.3 4 Nordeste 8 Este 0 -- -- 81
2018-06-27 06:00:00 18.7 6 Nordeste 8 Sudoeste 0 -- -- 81
2018-06-27 05:00:00 19.7 4 Sudoeste 10 Sur 0 -- -- 75
2018-06-27 04:00:00 20.4 6 Sur 10 Sur 0 -- -- 73
2018-06-27 03:00:00 21.1 7 Sur 9 Sudoeste 0 -- -- 70
2018-06-27 02:00:00 21.7 8 Sudoeste 23 Sudoeste 0 -- -- 69
2018-06-27 01:00:00 22.4 15 Sudoeste 37 Sudoeste 0 -- -- 68
2018-06-27 00:00:00 23.4 22 Sudoeste 30 Sudoeste 0 -- -- 66
2018-06-26 23:00:00 25.1 23 Sudoeste 33 Sudoeste 0 -- -- 60
2018-06-26 22:00:00 26.8 16 Sudoeste 27 Sudoeste 0 -- -- 52
2018-06-26 21:00:00 29.6 13 Sudoeste 26 Oeste 0 -- -- 45
2018-06-26 20:00:00 31.2 19 Oeste 29 Oeste 0 -- -- 41
2018-06-26 19:00:00 32.4 17 Oeste 27 Oeste 0 -- -- 39
2018-06-26 18:00:00 33.4 6 Sudoeste 24 Sudoeste 0 -- -- 37
2018-06-26 17:00:00 33.5 15 Sudoeste 26 Sudoeste 0 -- -- 38
2018-06-26 16:00:00 31.2 12 Norte 26 Norte 0 -- -- 46
2018-06-26 15:00:00 30.1 13 Nordeste 24 Nordeste 0 -- -- 48
2018-06-26 14:00:00 29 14 Norte 24 Nordeste 0 -- -- 49
2018-06-26 13:00:00 27.7 14 Nordeste 22 Nordeste 0 -- -- 53
2018-06-26 12:00:00 25.5 15 Nordeste 21 Nordeste 0 -- -- 59
2018-06-26 11:00:00 24 12 Nordeste 17 Nordeste 0 -- -- 65
2018-06-26 10:00:00 22.1 8 Nordeste 14 Nordeste 0 -- -- 71
2018-06-26 09:00:00 20.2 9 Nordeste 12 Nordeste 0 -- -- 79
2018-06-26 08:00:00 18.6 5 Nordeste 8 Nordeste 0 -- -- 83
2018-06-26 07:00:00 18.4 6 Nordeste 11 Nordeste 0 -- -- 83
2018-06-26 06:00:00 19.1 8 Nordeste 12 Nordeste 0 -- -- 80
2018-06-26 05:00:00 19.8 2 Norte 7 Sur 0 -- -- 76
2018-06-26 04:00:00 20.3 6 Sudoeste 13 Sudoeste 0 -- -- 74
2018-06-26 03:00:00 20.8 9 Sudoeste 17 Sudoeste 0 -- -- 73
2018-06-26 02:00:00 21.4 13 Sudoeste 20 Sudoeste 0 -- -- 71
2018-06-26 01:00:00 22.3 14 Sudoeste 35 Sudoeste 0 -- -- 68
2018-06-26 00:00:00 23.4 19 Sudoeste 26 Sudoeste 0 -- -- 64
2018-06-25 23:00:00 24.8 19 Sudoeste 25 Sudoeste 0 -- -- 58
2018-06-25 22:00:00 26.4 17 Sudoeste 24 Sudoeste 0 -- -- 53
2018-06-25 21:00:00 29.5 14 Sudoeste 22 Sudoeste 0 -- -- 46
2018-06-25 20:00:00 31.6 5 Sur 23 Norte 0 -- -- 43
2018-06-25 19:00:00 31.8 10 Noroeste 22 Nordeste 0 -- -- 44
2018-06-25 18:00:00 31.3 17 Norte 27 Norte 0 -- -- 45
2018-06-25 17:00:00 31.2 12 Norte 26 Norte 0 -- -- 47
2018-06-25 16:00:00 31 8 Norte 26 Norte 0 -- -- 47
2018-06-25 15:00:00 29.7 9 Norte 26 Nordeste 0 -- -- 48
2018-06-25 14:00:00 28.4 15 Nordeste 27 Norte 0 -- -- 52
2018-06-25 13:00:00 27.2 14 Nordeste 30 Nordeste 0 -- -- 54
2018-06-25 12:00:00 25.2 18 Nordeste 23 Nordeste 0 -- -- 61
2018-06-25 11:00:00 22.9 9 Nordeste 18 Nordeste 0 -- -- 70
2018-06-25 10:00:00 19.9 7 Nordeste 13 Nordeste 0 -- -- 82
2018-06-25 09:00:00 18.7 9 Nordeste 18 Nordeste 0 -- -- 87
2018-06-25 08:00:00 18.2 10 Norte 14 Nordeste 0 -- -- 89
2018-06-25 07:00:00 18.1 7 Nordeste 20 Nordeste 0 -- -- 87
2018-06-25 06:00:00 19.1 9 Nordeste 15 Nordeste 0 -- -- 83
2018-06-25 05:00:00 19.9 9 Nordeste 13 Nordeste 0 -- -- 79
2018-06-25 04:00:00 20.9 10 Sur 22 Sur 0 -- -- 73
2018-06-25 03:00:00 21.7 14 Sudoeste 21 Sur 0 -- -- 70
2018-06-25 02:00:00 22.9 13 Sur 22 Sudoeste 0 -- -- 68
2018-06-25 01:00:00 23.9 13 Sudoeste 31 Sur 0 -- -- 63
2018-06-25 00:00:00 24.8 23 Sudoeste 33 Sudoeste 0 -- -- 61
2018-06-24 23:00:00 26.3 25 Sudoeste 39 Sudoeste 0 -- -- 55
2018-06-24 22:00:00 28.9 23 Sudoeste 33 Sudoeste 0 -- -- 42
2018-06-24 21:00:00 31.8 21 Sudoeste 29 Sudoeste 0 -- -- 36
2018-06-24 20:00:00 35.4 14 Oeste 23 Oeste 0 -- -- 29
2018-06-24 19:00:00 37.2 6 Noroeste 20 Noroeste 0 -- -- 28
2018-06-24 18:00:00 36.9 8 Norte 20 Norte 0 -- -- 28
2018-06-24 17:00:00 36.9 12 Norte 23 Norte 0 -- -- 27
2018-06-24 16:00:00 36.2 14 Norte 26 Norte 0 -- -- 27
2018-06-24 15:00:00 35.5 13 Norte 25 Nordeste 0 -- -- 27
2018-06-24 14:00:00 35.4 10 Este 19 Nordeste 0 -- -- 27
2018-06-24 13:00:00 33.7 9 Nordeste 15 Nordeste 0 -- -- 29
2018-06-24 12:00:00 31.2 5 Nordeste 10 Norte 0 -- -- 35
2018-06-24 11:00:00 28.3 0 Calma 8 Sudoeste 0 -- -- 38
2018-06-24 10:00:00 25.4 4 Sudoeste 8 Sudoeste 0 -- -- 48
2018-06-24 09:00:00 22.1 0 Calma 12 Sudoeste 0 -- -- 53
2018-06-24 08:00:00 17.8 7 Sudoeste 9 Sudoeste 0 -- -- 65
2018-06-24 07:00:00 17.9 5 Sudoeste 10 Sudoeste 0 -- -- 63
2018-06-24 06:00:00 19 6 Sudoeste 11 Sudoeste 0 -- -- 60
2018-06-24 05:00:00 20.5 3 Norte 18 Nordeste 0 -- -- 53
2018-06-24 04:00:00 21.8 13 Nordeste 19 Nordeste 0 -- -- 51
2018-06-24 03:00:00 22.2 9 Nordeste 13 Nordeste 0 -- -- 52
2018-06-24 02:00:00 22.5 10 Sudoeste 13 Sudoeste 0 -- -- 50
2018-06-24 01:00:00 24.2 11 Sudoeste 14 Sudoeste 0 -- -- 45
2018-06-24 00:00:00 25.7 10 Sudoeste 18 Sur 0 -- -- 42
2018-06-23 23:00:00 27.2 12 Sur 18 Sudoeste 0 -- -- 38
2018-06-23 22:00:00 29 12 Sudoeste 16 Sudoeste 0 -- -- 35
2018-06-23 21:00:00 31.3 15 Sudoeste 32 Sudoeste 0 -- -- 33
2018-06-23 20:00:00 33.8 20 Sudoeste 29 Sudoeste 0 -- -- 31
2018-06-23 19:00:00 35.6 8 Noroeste 20 Oeste 0 -- -- 28
2018-06-23 18:00:00 36 8 Norte 24 Norte 0 -- -- 26
2018-06-23 17:00:00 36 15 Norte 24 Norte 0 -- -- 27
2018-06-23 16:00:00 35.9 12 Norte 26 Norte 0 -- -- 26
2018-06-23 15:00:00 34.2 14 Norte 26 Nordeste 0 -- -- 27
2018-06-23 14:00:00 33.1 5 Nordeste 19 Nordeste 0 -- -- 29
2018-06-23 13:00:00 31.1 6 Norte 14 Norte 0 -- -- 32
2018-06-23 12:00:00 29.4 6 Norte 14 Norte 0 -- -- 36
2018-06-23 11:00:00 27.4 5 Nordeste 10 Nordeste 0 -- -- 38
2018-06-23 10:00:00 23.8 0 Calma 5 Norte 0 -- -- 52
2018-06-23 09:00:00 20.7 0 Calma 9 Sudoeste 0 -- -- 58
2018-06-23 08:00:00 16.7 6 Sudoeste 10 Sudoeste 0 -- -- 69
2018-06-23 07:00:00 16.3 6 Sudoeste 9 Sudoeste 0 -- -- 69
2018-06-23 06:00:00 17.3 5 Sudoeste 7 Norte 0 -- -- 65
2018-06-23 05:00:00 18.6 6 Norte 16 Nordeste 0 -- -- 60
2018-06-23 04:00:00 19.8 8 Nordeste 13 Nordeste 0 -- -- 56
2018-06-23 03:00:00 20.9 7 Nordeste 8 Nordeste 0 -- -- 54
2018-06-23 02:00:00 22.2 6 Sudoeste 15 Sudoeste 0 -- -- 49
2018-06-23 01:00:00 23.4 12 Sudoeste 17 Sur 0 -- -- 46
2018-06-23 00:00:00 24.5 10 Sudoeste 23 Sur 0 -- -- 44
2018-06-22 23:00:00 25.9 17 Sudoeste 22 Sur 0 -- -- 41
2018-06-22 22:00:00 27.3 17 Sudoeste 33 Sudoeste 0 -- -- 38
2018-06-22 21:00:00 30.3 25 Sudoeste 36 Sudoeste 0 -- -- 34
2018-06-22 20:00:00 32.7 6 Noroeste 19 Noroeste 0 -- -- 33
2018-06-22 19:00:00 33 9 Norte 27 Norte 0 -- -- 32
2018-06-22 18:00:00 33.3 12 Norte 24 Norte 0 -- -- 32
2018-06-22 17:00:00 33.3 10 Norte 25 Norte 0 -- -- 32
2018-06-22 16:00:00 32.5 9 Noroeste 19 Norte 0 -- -- 32
2018-06-22 15:00:00 30.8 11 Noroeste 21 Norte 0 -- -- 36
2018-06-22 14:00:00 30.1 6 Este 19 Nordeste 0 -- -- 38
2018-06-22 13:00:00 28 11 Nordeste 23 Nordeste 0 -- -- 41
2018-06-22 12:00:00 26.7 8 Norte 18 Nordeste 0 -- -- 44
2018-06-22 11:00:00 24.4 15 Nordeste 23 Nordeste 0 -- -- 48
2018-06-22 10:00:00 24.4 9 Nordeste 15 Nordeste 0 -- -- 49
2018-06-22 09:00:00 21.6 0 Calma 4 Noroeste 0 -- -- 56
2018-06-22 08:00:00 18.5 0 Calma 6 Oeste 0 -- -- 67
2018-06-22 07:00:00 17.6 5 Sudoeste 8 Sudoeste 0 -- -- 68
2018-06-22 06:00:00 18.8 6 Sudoeste 9 Sur 0 -- -- 64
2018-06-22 05:00:00 19.3 8 Sudoeste 17 Sudoeste 0 -- -- 65
2018-06-22 04:00:00 20.4 11 Sudoeste 23 Sudoeste 0 -- -- 61
2018-06-22 03:00:00 21 12 Sudoeste 25 Sudoeste 0 -- -- 52
2018-06-22 02:00:00 21.8 13 Sudoeste 31 Sudoeste 0 -- -- 50
2018-06-22 01:00:00 22.9 18 Sudoeste 28 Sudoeste 0 -- -- 49
2018-06-22 00:00:00 23.9 16 Sur 19 Sur 0 -- -- 48
2018-06-21 23:00:00 25.1 14 Sur 21 Sudoeste 0 -- -- 45
2018-06-21 22:00:00 26.3 16 Sudoeste 35 Sudoeste 0 -- -- 41
2018-06-21 21:00:00 28.4 23 Sudoeste 47 Sudoeste 0 -- -- 38
2018-06-21 20:00:00 31 26 Sudoeste 42 Sudoeste 0 -- -- 34
2018-06-21 19:00:00 33.8 26 Sudoeste 35 Sudoeste 0 -- -- 30
2018-06-21 18:00:00 33.5 12 Noroeste 20 Norte 0 -- -- 27
2018-06-21 17:00:00 34.2 10 Oeste 25 Norte 0 -- -- 27
2018-06-21 16:00:00 32.5 11 Norte 26 Norte 0 -- -- 30
2018-06-21 15:00:00 31.7 9 Nordeste 24 Nordeste 0 -- -- 31
2018-06-21 14:00:00 31.2 6 Este 21 Norte 0 -- -- 34
2018-06-21 13:00:00 28.9 9 Norte 24 Nordeste 0 -- -- 37
2018-06-21 12:00:00 27.8 14 Nordeste 26 Nordeste 0 -- -- 40
2018-06-21 11:00:00 27.1 11 Nordeste 20 Nordeste 0 -- -- 40
2018-06-21 10:00:00 25.7 9 Nordeste 14 Nordeste 0 -- -- 44
2018-06-21 09:00:00 22.4 6 Sur 12 Sudoeste 0 -- -- 53
2018-06-21 08:00:00 19.6 5 Oeste 12 Sudoeste 0 -- -- 62
2018-06-21 07:00:00 19.6 6 Sur 19 Sur 0 -- -- 59
2018-06-21 06:00:00 19.3 14 Sudoeste 23 Sudoeste 0 -- -- 61
2018-06-21 05:00:00 19.9 13 Sudoeste 26 Sudoeste 0 -- -- 60
2018-06-21 04:00:00 20.3 19 Sudoeste 28 Sur 0 -- -- 58
2018-06-21 03:00:00 20.8 19 Sudoeste 28 Sudoeste 0 -- -- 56
2018-06-21 02:00:00 21.4 8 Sur 15 Sudoeste 0 -- -- 52
2018-06-21 01:00:00 22.4 8 Sudoeste 13 Sudoeste 0 -- -- 48
2018-06-21 00:00:00 23.8 8 Sudoeste 16 Sur 0 -- -- 45
2018-06-20 23:00:00 25.3 13 Sur 19 Sur 0 -- -- 41
2018-06-20 22:00:00 26.9 15 Sudoeste 26 Sudoeste 0 -- -- 39
2018-06-20 21:00:00 29.5 24 Sudoeste 42 Sudoeste 0 -- -- 36
2018-06-20 20:00:00 33.5 13 Oeste 25 Sudoeste 0 -- -- 30
2018-06-20 19:00:00 33.7 9 Norte 21 Norte 0 -- -- 29
2018-06-20 18:00:00 33.8 8 Norte 22 Norte 0 -- -- 29
2018-06-20 17:00:00 33.5 9 Norte 23 Nordeste 0 -- -- 29
2018-06-20 16:00:00 32.9 12 Norte 22 Nordeste 0 -- -- 30
2018-06-20 15:00:00 32.3 13 Norte 23 Norte 0 -- -- 31
2018-06-20 14:00:00 30.8 12 Norte 23 Norte 0 -- -- 32
2018-06-20 13:00:00 29.9 12 Norte 25 Nordeste 0 -- -- 34
2018-06-20 12:00:00 29 13 Nordeste 20 Norte 0 -- -- 35
2018-06-20 11:00:00 28 6 Norte 12 Sur 0 -- -- 36
2018-06-20 10:00:00 27.1 6 Sudeste 13 Sudeste 0 -- -- 41
2018-06-20 09:00:00 23.1 2 Nordeste 7 Nordeste 0 -- -- 52
2018-06-20 08:00:00 19.4 4 Nordeste 10 Nordeste 0 -- -- 61
2018-06-20 07:00:00 17.9 8 Nordeste 10 Norte 0 -- -- 63
2018-06-20 06:00:00 18.6 8 Norte 10 Norte 0 -- -- 61
2018-06-20 05:00:00 19.6 2 Nordeste 8 Oeste 0 -- -- 57
2018-06-20 04:00:00 19.8 0 Calma 9 Norte 0 -- -- 56
2018-06-20 03:00:00 20.4 0 Calma 7 Sudoeste 0 -- -- 54
2018-06-20 02:00:00 20.8 4 Sudoeste 9 Sudoeste 0 -- -- 52
2018-06-20 01:00:00 21.4 6 Sudoeste 10 Sudoeste 0 -- -- 50
2018-06-20 00:00:00 22.3 9 Sudoeste 18 Sudoeste 0 -- -- 48
2018-06-19 23:00:00 23.9 16 Sudoeste 23 Sudoeste 0 -- -- 44
2018-06-19 22:00:00 25.7 15 Sudoeste 24 Sudoeste 0 -- -- 38
2018-06-19 21:00:00 28.9 17 Sudoeste 32 Sudoeste 0 -- -- 32
2018-06-19 20:00:00 31.6 20 Sudoeste 27 Sudoeste 0 -- -- 29
2018-06-19 19:00:00 33.2 20 Sudoeste 31 Sudoeste 0 -- -- 28
2018-06-19 18:00:00 33.9 19 Sudoeste 29 Sudoeste 0 -- -- 28
2018-06-19 17:00:00 33.4 11 Noroeste 22 Noroeste 0 -- -- 30
2018-06-19 16:00:00 33.3 12 Oeste 25 Sudoeste 0 -- -- 28
2018-06-19 15:00:00 33.6 10 Sudoeste 27 Sur 0 -- -- 27
2018-06-19 14:00:00 32.3 10 Sudeste 24 Sur 0 -- -- 30
2018-06-19 13:00:00 31.2 15 Sudeste 28 Sur 0 -- -- 30
2018-06-19 12:00:00 30.5 14 Sudeste 25 Sudeste 0 -- -- 32
2018-06-19 11:00:00 26.9 6 Norte 12 Norte 0 -- -- 42
2018-06-19 10:00:00 24.2 8 Norte 11 Norte 0 -- -- 50
2018-06-19 09:00:00 22.7 4 Nordeste 6 Nordeste 0 -- -- 49
2018-06-19 08:00:00 18.2 4 Sudoeste 10 Sudoeste 0 -- -- 60
2018-06-19 07:00:00 17.7 4 Sudoeste 8 Sudoeste 0 -- -- 59
2018-06-19 06:00:00 18.8 5 Sur 7 Oeste 0 -- -- 56
2018-06-19 05:00:00 19.7 8 Sudoeste 17 Sudoeste 0 -- -- 52
2018-06-19 04:00:00 20.9 14 Sudoeste 19 Sudoeste 0 -- -- 49
2018-06-19 03:00:00 22.1 15 Sudoeste 21 Sur 0 -- -- 46
2018-06-19 02:00:00 23.4 17 Sudoeste 27 Sudoeste 0 -- -- 42
2018-06-19 01:00:00 24.2 15 Sur 26 Sudoeste 0 -- -- 41
2018-06-19 00:00:00 25.6 13 Sudoeste 20 Sudoeste 0 -- -- 39
2018-06-18 23:00:00 26.7 14 Sur 27 Sudoeste 0 -- -- 37
2018-06-18 22:00:00 28.5 17 Sudoeste 26 Sudoeste 0 -- -- 34
2018-06-18 21:00:00 30.5 18 Sudoeste 33 Sudoeste 0 -- -- 33
2018-06-18 20:00:00 32.7 23 Sudoeste 40 Sudoeste 0 -- -- 30
2018-06-18 19:00:00 35.2 8 Norte 23 Norte 0 -- -- 24
2018-06-18 18:00:00 35.7 8 Noroeste 23 Norte 0 -- -- 24
2018-06-18 17:00:00 35 10 Norte 22 Nordeste 0 -- -- 26
2018-06-18 16:00:00 35.6 7 Norte 22 Nordeste 0 -- -- 27
2018-06-18 15:00:00 34.5 10 Norte 22 Nordeste 0 -- -- 29
2018-06-18 14:00:00 32.5 11 Norte 23 Nordeste 0 -- -- 32
2018-06-18 13:00:00 33.1 11 Nordeste 18 Nordeste 0 -- -- 31
2018-06-18 12:00:00 31.8 8 Nordeste 16 Nordeste 0 -- -- 34
2018-06-18 11:00:00 30.5 4 Norte 8 Sudoeste 0 -- -- 36
2018-06-18 10:00:00 26.7 0 Calma 4 Noroeste 0 -- -- 43
2018-06-18 09:00:00 21.7 3 Sur 11 Sudoeste 0 -- -- 55
2018-06-18 08:00:00 18.2 6 Sudoeste 12 Sudoeste 0 -- -- 61
2018-06-18 07:00:00 19.4 4 Sudoeste 6 Sudoeste 0 -- -- 54
2018-06-18 06:00:00 20 7 Sudoeste 11 Sudoeste 0 -- -- 53
2018-06-18 05:00:00 20.2 9 Sur 13 Sudoeste 0 -- -- 51
2018-06-18 04:00:00 20.5 9 Sudoeste 10 Sudoeste 0 -- -- 53
2018-06-18 03:00:00 21.9 8 Sudoeste 10 Sudoeste 0 -- -- 48
2018-06-18 02:00:00 23.2 6 Sudoeste 9 Sudoeste 0 -- -- 44
2018-06-18 01:00:00 24.4 7 Sudoeste 18 Sur 0 -- -- 41
2018-06-18 00:00:00 25.7 12 Sudoeste 18 Sudoeste 0 -- -- 38
2018-06-17 23:00:00 26.9 14 Sudoeste 18 Sudoeste 0 -- -- 35
2018-06-17 22:00:00 28.7 16 Sudoeste 24 Sudoeste 0 -- -- 32
2018-06-17 21:00:00 31.6 19 Sudoeste 39 Sudoeste 0 -- -- 28
2018-06-17 20:00:00 34.1 9 Noroeste 18 Noroeste 0 -- -- 28
2018-06-17 19:00:00 33 11 Norte 23 Norte 0 -- -- 29
2018-06-17 18:00:00 33.8 12 Norte 24 Nordeste 0 -- -- 27
2018-06-17 17:00:00 34.1 15 Norte 25 Norte 0 -- -- 28
2018-06-17 16:00:00 33.9 11 Norte 29 Norte 0 -- -- 30
2018-06-17 15:00:00 33.3 13 Nordeste 25 Nordeste 0 -- -- 33
2018-06-17 14:00:00 32.3 12 Nordeste 21 Nordeste 0 -- -- 35
2018-06-17 13:00:00 30.8 13 Norte 19 Norte 0 -- -- 38
2018-06-17 12:00:00 28.9 6 Norte 13 Norte 0 -- -- 40
2018-06-17 11:00:00 28.5 6 Nordeste 11 Nordeste 0 -- -- 42
2018-06-17 10:00:00 25 5 Norte 9 Norte 0 -- -- 49
2018-06-17 09:00:00 23.4 0 Calma 4 Sudoeste 0 -- -- 54
2018-06-17 08:00:00 18.8 0 Calma 11 Sudoeste 0 -- -- 67
2018-06-17 07:00:00 17.4 8 Sudoeste 10 Sudoeste 0 -- -- 69
2018-06-17 06:00:00 18.4 8 Sudoeste 9 Sudoeste 0 -- -- 63
2018-06-17 05:00:00 19.4 8 Sudoeste 12 Sudoeste 0 -- -- 58
2018-06-17 04:00:00 20.3 8 Sudoeste 10 Sur 0 -- -- 55
2018-06-17 03:00:00 21.7 8 Sudoeste 12 Sudoeste 0 -- -- 50
2018-06-17 02:00:00 23.2 8 Sudoeste 12 Sur 0 -- -- 47
2018-06-17 01:00:00 24.1 9 Sur 32 Sur 0 -- -- 41
2018-06-17 00:00:00 25.4 19 Sudoeste 27 Sudoeste 0 -- -- 39